Vendor, Arkansas
Current Conditions -  °F | °C
As of 12:28 PM on Saturday 20 Dec 2014 (Local Time) from KHRO Reporting Station
Overcast Overcast  
Wind Chill: 42°   Ceiling: 1900
Heat Index: 42°   Visibility: 10mi
Dew Point: 39°   Wind: 0mph
Humidity: 89%   Direction: NA
Pressure: 30.2"   Gusts: NA
Location:  35.95°N, 93.08°W
Report Text: KHRO 201828Z AUTO 00000KT 10SM FEW009 OVC019 06/04 A3020 RMK AO2 T00560039 $
Loading
Personal Weather Stations






























Interactive Weather Map New forecast layout! Learn more

10-Day Weather Forecast

Advertisements
Track Severe Weather on mobile